createdAt,value
2018-06-22T00:04:40.195Z,16.73
2018-06-22T00:09:34.707Z,16.72
2018-06-22T00:14:29.188Z,16.61
2018-06-22T00:19:23.630Z,16.49
2018-06-22T00:24:18.142Z,16.21
2018-06-22T00:29:12.633Z,15.97
2018-06-22T00:34:07.150Z,15.68
2018-06-22T00:39:01.440Z,15.56
2018-06-22T00:43:55.654Z,15.30
2018-06-22T00:48:49.849Z,15.28
2018-06-22T00:54:01.203Z,15.09
2018-06-22T00:58:55.814Z,14.91
2018-06-22T01:03:50.576Z,14.85
2018-06-22T01:08:44.985Z,14.75
2018-06-22T01:13:39.580Z,14.62
2018-06-22T01:18:34.067Z,14.60
2018-06-22T01:23:28.565Z,14.52
2018-06-22T01:28:24.168Z,14.57
2018-06-22T01:33:18.808Z,14.42
2018-06-22T01:38:13.241Z,14.49
2018-06-22T01:43:07.935Z,14.36
2018-06-22T01:48:02.652Z,14.23
2018-06-22T01:52:57.169Z,14.28
2018-06-22T01:57:51.668Z,14.25
2018-06-22T02:02:46.221Z,14.34
2018-06-22T02:07:40.678Z,14.29
2018-06-22T02:12:35.246Z,14.22
2018-06-22T02:17:29.704Z,14.10
2018-06-22T02:22:24.369Z,13.87
2018-06-22T02:27:18.993Z,13.93
2018-06-22T02:32:13.443Z,13.83
2018-06-22T02:37:07.873Z,13.76
2018-06-22T02:42:02.380Z,13.59
2018-06-22T02:46:56.836Z,13.58
2018-06-22T02:51:51.365Z,13.62
2018-06-22T02:56:45.796Z,13.48
2018-06-22T03:01:40.337Z,13.48
2018-06-22T03:06:36.109Z,13.39
2018-06-22T03:11:30.559Z,13.39
2018-06-22T03:16:24.981Z,13.25
2018-06-22T03:21:19.628Z,13.14
2018-06-22T03:26:14.236Z,13.26
2018-06-22T03:31:09.446Z,13.41
2018-06-22T03:36:03.872Z,13.49
2018-06-22T03:40:58.418Z,13.55
2018-06-22T03:45:52.926Z,13.62
2018-06-22T03:50:47.489Z,13.65
2018-06-22T03:55:42.077Z,14.08
2018-06-22T04:00:36.495Z,15.04
2018-06-22T04:05:30.955Z,15.93
2018-06-22T04:10:25.454Z,16.28
2018-06-22T04:15:19.994Z,16.48
2018-06-22T04:20:14.750Z,15.75
2018-06-22T04:25:09.310Z,15.37
2018-06-22T04:30:03.781Z,14.81
2018-06-22T04:34:58.320Z,14.67
2018-06-22T04:39:52.847Z,14.39
2018-06-22T04:44:47.347Z,15.55
2018-06-22T04:49:41.852Z,16.32
2018-06-22T04:54:36.581Z,17.57
2018-06-22T04:59:31.084Z,18.55
2018-06-22T05:04:25.577Z,19.62
2018-06-22T05:09:20.069Z,19.52
2018-06-22T05:14:14.592Z,20.59
2018-06-22T05:19:09.007Z,19.26
2018-06-22T05:24:03.529Z,18.79
2018-06-22T05:28:58.049Z,18.34
2018-06-22T05:33:52.495Z,20.75
2018-06-22T05:38:46.920Z,20.98
2018-06-22T05:43:41.314Z,19.31
2018-06-22T05:48:35.771Z,20.38
2018-06-22T05:53:30.212Z,20.65
2018-06-22T05:58:24.672Z,22.07
2018-06-22T06:03:19.500Z,20.92
2018-06-22T06:08:14.287Z,22.21
2018-06-22T06:13:08.677Z,21.31
2018-06-22T06:18:03.140Z,20.35
2018-06-22T06:22:57.300Z,18.82
2018-06-22T06:27:51.741Z,18.91
2018-06-22T06:32:46.649Z,20.34
2018-06-22T06:37:41.168Z,19.64
2018-06-22T06:42:38.444Z,18.29
2018-06-22T06:47:32.972Z,19.30
2018-06-22T06:52:27.416Z,20.49
2018-06-22T06:57:21.957Z,20.73
2018-06-22T07:02:16.338Z,19.79
2018-06-22T07:07:11.321Z,18.68
2018-06-22T07:12:06.222Z,18.49
2018-06-22T07:17:00.752Z,17.49
2018-06-22T07:21:55.353Z,18.07
2018-06-22T07:26:49.865Z,17.47
2018-06-22T07:31:44.368Z,19.33
2018-06-22T07:36:38.986Z,19.54
2018-06-22T07:41:33.442Z,19.53
2018-06-22T07:46:28.065Z,20.35
2018-06-22T07:51:23.219Z,20.83
2018-06-22T07:56:18.144Z,21.65
2018-06-22T08:01:13.143Z,21.15
2018-06-22T08:06:07.640Z,20.67
2018-06-22T08:11:02.231Z,21.44
2018-06-22T08:15:56.652Z,21.19
2018-06-22T08:20:51.372Z,20.45
2018-06-22T08:25:45.892Z,20.08
2018-06-22T08:30:40.489Z,20.51
2018-06-22T08:35:36.016Z,21.07
2018-06-22T08:40:31.204Z,20.74
2018-06-22T08:45:31.562Z,20.86
2018-06-22T08:50:26.515Z,20.71
2018-06-22T08:55:31.808Z,20.39
2018-06-22T09:00:26.233Z,20.94
2018-06-22T09:05:20.679Z,20.61
2018-06-22T09:10:15.217Z,19.93
2018-06-22T09:15:15.824Z,20.23
2018-06-22T09:20:10.332Z,20.43
2018-06-22T09:25:04.929Z,20.58
2018-06-22T09:29:59.596Z,20.92
2018-06-22T09:34:54.247Z,20.90
2018-06-22T09:39:48.684Z,20.76
2018-06-22T09:44:43.309Z,20.81
2018-06-22T09:49:37.731Z,20.67
2018-06-22T09:54:32.452Z,21.13
2018-06-22T09:59:26.909Z,21.96
2018-06-22T10:04:22.290Z,21.82
2018-06-22T10:09:16.716Z,22.10
2018-06-22T10:14:11.205Z,22.40
2018-06-22T10:19:06.105Z,22.29
2018-06-22T10:24:01.057Z,22.31
2018-06-22T10:28:55.585Z,22.75
2018-06-22T10:33:50.086Z,22.05
2018-06-22T10:38:44.596Z,22.32
2018-06-22T10:43:39.461Z,22.36
2018-06-22T10:48:33.909Z,22.08
2018-06-22T10:53:28.386Z,21.97
2018-06-22T10:58:22.912Z,21.89
2018-06-22T11:03:25.650Z,21.61
2018-06-22T11:08:20.647Z,22.33
2018-06-22T11:13:15.605Z,22.74
2018-06-22T11:18:16.908Z,22.98
2018-06-22T11:23:11.479Z,22.57
2018-06-22T11:28:15.041Z,23.13
2018-06-22T11:33:09.923Z,23.75
2018-06-22T11:38:04.616Z,24.21
2018-06-22T11:42:59.213Z,24.28
2018-06-22T11:47:54.008Z,24.00
2018-06-22T11:53:11.758Z,23.68
2018-06-22T11:58:07.322Z,23.92
2018-06-22T12:03:02.152Z,24.12
2018-06-22T12:07:56.691Z,23.57
2018-06-22T12:12:51.438Z,23.82
2018-06-22T12:17:45.832Z,23.68
2018-06-22T12:22:41.827Z,24.43
2018-06-22T12:32:48.220Z,25.18
2018-06-22T12:37:42.756Z,24.02
2018-06-22T12:42:38.305Z,24.05
2018-06-22T12:47:33.370Z,23.85
2018-06-22T12:52:28.028Z,23.36
2018-06-22T12:57:22.489Z,23.74
2018-06-22T13:02:17.091Z,23.85
2018-06-22T13:07:12.668Z,23.27
2018-06-22T13:12:07.227Z,23.31
2018-06-22T13:17:02.424Z,23.77
2018-06-22T13:21:57.031Z,24.26
2018-06-22T13:26:55.911Z,23.87
2018-06-22T13:31:51.388Z,22.96
2018-06-22T13:36:48.158Z,22.26
2018-06-22T13:41:44.113Z,22.33
2018-06-22T13:46:40.080Z,23.06
2018-06-22T13:51:36.013Z,23.15
2018-06-22T13:56:30.640Z,23.05
2018-06-22T14:01:25.175Z,23.42
2018-06-22T14:06:24.822Z,23.60
2018-06-22T14:11:20.299Z,23.08
2018-06-22T14:16:14.715Z,22.92
2018-06-22T14:21:09.198Z,21.97
2018-06-22T14:26:04.004Z,21.21
2018-06-22T14:30:58.928Z,21.33
2018-06-22T14:35:54.504Z,21.18
2018-06-22T14:40:52.213Z,21.03
2018-06-22T14:45:52.066Z,20.84
2018-06-22T14:50:46.838Z,20.47
2018-06-22T14:55:46.385Z,20.46
2018-06-22T15:00:46.394Z,20.85
2018-06-22T15:05:46.104Z,21.03
2018-06-22T15:10:40.773Z,21.27
2018-06-22T15:15:36.249Z,21.51
2018-06-22T15:20:30.938Z,21.59
2018-06-22T15:25:25.752Z,20.97
2018-06-22T15:30:20.316Z,21.31
2018-06-22T15:35:20.093Z,21.04
2018-06-22T15:40:19.808Z,20.72
2018-06-22T15:45:19.728Z,20.35
2018-06-22T15:50:19.153Z,20.25
2018-06-22T15:55:18.478Z,20.14
2018-06-22T16:00:13.533Z,20.24
2018-06-22T16:05:08.169Z,20.11
2018-06-22T16:10:03.594Z,20.04
2018-06-22T16:15:03.374Z,20.01
2018-06-22T16:20:03.438Z,20.30
2018-06-22T16:25:03.485Z,19.71
2018-06-22T16:29:58.316Z,19.65
2018-06-22T16:34:53.150Z,19.54
2018-06-22T16:39:47.913Z,19.75
2018-06-22T16:44:42.466Z,19.82
2018-06-22T16:49:37.064Z,19.52
2018-06-22T16:54:31.733Z,19.74
2018-06-22T16:59:26.564Z,19.81
2018-06-22T17:04:21.355Z,19.44
2018-06-22T17:09:21.397Z,19.36
2018-06-22T17:15:18.687Z,19.32
2018-06-22T17:20:13.425Z,19.32
2018-06-22T17:25:08.428Z,19.33
2018-06-22T17:30:03.588Z,19.22
2018-06-22T17:35:01.147Z,19.09
2018-06-22T17:39:56.044Z,18.91
2018-06-22T17:44:50.913Z,18.68
2018-06-22T17:49:46.050Z,18.53
2018-06-22T17:54:40.990Z,18.29
2018-06-22T17:59:40.868Z,18.30
2018-06-22T18:04:39.262Z,18.34
2018-06-22T18:09:39.020Z,18.09
2018-06-22T18:14:33.765Z,18.16
2018-06-22T18:19:28.577Z,18.08
2018-06-22T18:24:23.321Z,18.07
2018-06-22T18:29:18.201Z,17.81
2018-06-22T18:34:13.099Z,17.81
2018-06-22T18:39:12.129Z,17.84
2018-06-22T18:44:06.741Z,17.71
2018-06-22T18:49:01.467Z,17.71
2018-06-22T18:54:01.265Z,17.67
2018-06-22T19:00:30.615Z,17.64
2018-06-22T19:05:25.241Z,18.55
2018-06-22T19:10:20.162Z,18.82
2018-06-22T19:15:15.780Z,18.84
2018-06-22T19:20:10.772Z,18.17
2018-06-22T19:25:05.470Z,17.69
2018-06-22T19:30:00.380Z,17.50
2018-06-22T19:35:00.395Z,17.22
2018-06-22T19:39:55.041Z,17.38
2018-06-22T19:44:54.888Z,17.37
2018-06-22T19:49:54.809Z,17.30
2018-06-22T19:54:49.805Z,17.12
2018-06-22T19:59:44.557Z,17.01
2018-06-22T20:04:39.608Z,16.93
2018-06-22T20:09:34.504Z,16.92
2018-06-22T20:14:29.296Z,16.70
2018-06-22T20:19:23.887Z,16.33
2018-06-22T20:26:27.967Z,16.26
2018-06-22T20:31:27.644Z,16.28
2018-06-22T20:38:34.998Z,16.06
2018-06-22T20:43:34.817Z,16.08
2018-06-22T20:48:34.657Z,15.82
2018-06-22T20:53:29.259Z,15.71
2018-06-22T20:58:23.882Z,15.56
2018-06-22T21:03:18.456Z,15.63
2018-06-22T21:08:13.312Z,15.74
2018-06-22T21:13:08.241Z,15.52
2018-06-22T21:18:02.478Z,15.49
2018-06-22T21:22:56.942Z,15.35
2018-06-22T21:27:56.637Z,15.40
2018-06-22T21:32:56.469Z,15.27
2018-06-22T21:37:56.138Z,15.34
2018-06-22T21:42:50.684Z,15.39
2018-06-22T21:47:45.454Z,15.21
2018-06-22T21:52:39.760Z,15.13
2018-06-22T21:57:34.401Z,15.11
2018-06-22T22:02:29.100Z,15.16
2018-06-22T22:07:25.265Z,15.07
2018-06-22T22:12:19.851Z,15.15
2018-06-22T22:17:14.498Z,15.16
2018-06-22T22:22:09.440Z,15.11
2018-06-22T22:27:04.266Z,15.07
2018-06-22T22:31:58.846Z,15.10
2018-06-22T22:36:53.473Z,15.03
2018-06-22T22:41:47.990Z,15.03
2018-06-22T22:46:42.490Z,15.19
2018-06-22T22:51:37.212Z,15.00
2018-06-22T22:56:31.724Z,14.88
2018-06-22T23:01:26.373Z,14.92
2018-06-22T23:06:20.956Z,14.86
2018-06-22T23:11:15.485Z,14.85
2018-06-22T23:16:10.078Z,14.88
2018-06-22T23:21:04.702Z,15.09
2018-06-22T23:25:59.256Z,15.01
2018-06-22T23:30:53.793Z,14.99
2018-06-22T23:35:48.408Z,14.84
2018-06-22T23:40:43.034Z,14.81
2018-06-22T23:45:37.749Z,14.87
2018-06-22T23:50:32.466Z,14.66
2018-06-22T23:55:27.067Z,14.47
